Observations for LUTON AIRPORT, United Kingdom (EGGW)

EGGW 130850Z AUTO 12011KT 9999 NCD 02/M00 Q1017 
EGGW 130820Z AUTO 12010KT 9999 NCD 01/M00 Q1016 
EGGW 130750Z AUTO 12007KT 9999 NCD 00/M00 Q1016 
EGGW 130720Z AUTO 12008KT 9999 NCD 00/M01 Q1016 
EGGW 130650Z AUTO 12009KT 9999 NCD 00/M01 Q1016 
EGGW 130620Z AUTO 12009KT 9000 NCD 00/M01 Q1016 
EGGW 130550Z AUTO 12009KT 9000 NCD 00/M00 Q1016 
EGGW 130520Z AUTO 12011KT 9000 NCD 01/M00 Q1016 
EGGW 130450Z AUTO 12010KT 9999 NCD 01/M00 Q1016 
EGGW 130420Z AUTO 12012KT 9000 NCD 01/M00 Q1016 
EGGW 130350Z AUTO 12012KT 7000 NCD 01/00 Q1016  
EGGW 130320Z AUTO 12012KT 6000 NCD 01/00 Q1016  
EGGW 130250Z AUTO 12012KT 5000 HZ SCT008 01/00 Q1017
EGGW 130220Z AUTO 12012KT 8000 BKN009 01/00 Q1017   
EGGW 130150Z AUTO 13010KT 9999 NCD 01/M00 Q1017 
EGGW 130120Z AUTO 12011KT 9999 NCD 02/M00 Q1017 
EGGW 130050Z AUTO 12011KT 9999 NCD 02/M00 Q1018 
EGGW 130020Z AUTO 12011KT 9999 NCD 02/M00 Q1018 
EGGW 122350Z AUTO 13010KT 9999 NCD 02/M00 Q1018 
EGGW 122320Z AUTO 13009KT 9999 NCD 02/M01 Q1018 
EGGW 122250Z AUTO 13010KT 9999 NCD 02/M01 Q1018 
EGGW 122220Z AUTO 13010KT 9999 NCD 02/M01 Q1018 
EGGW 122150Z AUTO 12011KT 9999 NCD 02/M01 Q1018 
EGGW 122120Z AUTO 13009KT 9999 NCD 02/M01 Q1019 
EGGW 122050Z AUTO 13009KT 9999 NCD 02/M01 Q1019 
EGGW 122020Z AUTO 12008KT 9999 NCD 02/M01 Q1019 
EGGW 121950Z AUTO 13008KT 9999 NCD 02/M01 Q1020 
EGGW 121920Z AUTO 13008KT 9999 NCD 02/M01 Q1020 
EGGW 121850Z AUTO 12007KT 9999 NCD 01/M02 Q1020 
EGGW 121820Z AUTO 12007KT 9999 NCD 01/M02 Q1020 
EGGW 121750Z AUTO 13006KT 9999 NCD 02/M02 Q1020 
EGGW 121720Z AUTO 14007KT 9999 NCD 03/M02 Q1021 
EGGW 121650Z AUTO 14007KT 9999 NCD 03/M01 Q1021 
EGGW 121620Z AUTO 14008KT 9999 NCD 03/M01 Q1021 
EGGW 121550Z AUTO 14009KT 9999 NCD 04/M01 Q1020 
EGGW 121520Z AUTO 14011KT 9999 NCD 05/M01 Q1020 
EGGW 121450Z AUTO 12009KT 9999 FEW030 05/01 Q1020   
EGGW 121420Z AUTO 13010KT 9999 SCT033 05/01 Q1021   
EGGW 121350Z AUTO 14008KT 9999 BKN031 05/01 Q1021   
EGGW 121320Z AUTO 14010KT 9999 BKN032 05/02 Q1021   
EGGW 121250Z AUTO 13010KT 9999 OVC030 05/02 Q1022   
EGGW 121220Z AUTO 13009KT 9999 OVC028 05/02 Q1022   
EGGW 121150Z AUTO 13010KT 9999 OVC029 05/03 Q1022   
EGGW 121120Z AUTO 13011KT 9999 BKN015 BKN030 OVC041 05/03 Q1022 
EGGW 121050Z AUTO 12010KT 9999 BKN012 OVC037 05/04 Q1022
EGGW 121020Z AUTO 11009KT 9000 BKN009 OVC032 05/04 Q1022
EGGW 120950Z AUTO 13007KT 5000 BR BKN006 OVC031 05/05 Q1022 
EGGW 120920Z AUTO 13008KT 3300 BR BKN006 OVC024 05/05 Q1022 
EGGW 120850Z AUTO 13008KT 4500 BR BKN007 OVC020 05/05 Q1022 
EGGW 120820Z AUTO 13008KT 7000 SCT007 OVC018 05/05 Q1022